Time;durP1;ratioP1;P1;durP2;ratioP2;P2;SDS_P1;SDS_P2;PMS_P1;PMS_P2;Temp;Humidity;BMP_temperature;BMP_pressure;BME280_temperature;BME280_humidity;BME280_pressure;Samples;Min_cycle;Max_cycle;Signal;HPM_P1;HPM_P2
2023/02/28 00:01:09;;;;;;;1.52;1.20;;;;;;;;;;5113403;28;20496;-33
2023/02/28 00:03:35;;;;;;;2.55;1.65;;;;;;;;;;5114688;28;20023;-33
2023/02/28 00:06:02;;;;;;;1.88;1.40;;;;;;;;;;5113308;28;20318;-31
2023/02/28 00:08:29;;;;;;;3.08;1.50;;;;;;;;;;5112940;28;20096;-31
2023/02/28 00:10:55;;;;;;;2.88;1.38;;;;;;;;;;5112970;28;20102;-31
2023/02/28 00:13:21;;;;;;;2.63;1.58;;;;;;;;;;5113237;27;20452;-33
2023/02/28 00:15:47;;;;;;;2.92;1.58;;;;;;;;;;5112790;28;20389;-34
2023/02/28 00:18:13;;;;;;;3.35;1.50;;;;;;;;;;5112766;28;20020;-34
2023/02/28 00:20:39;;;;;;;3.20;1.50;;;;;;;;;;5111386;28;20032;-36
2023/02/28 00:23:05;;;;;;;3.25;1.23;;;;;;;;;;5112647;28;20393;-31
2023/02/28 00:25:31;;;;;;;1.92;1.30;;;;;;;;;;5112650;28;20023;-31
2023/02/28 00:27:57;;;;;;;2.90;1.55;;;;;;;;;;5112466;27;20054;-33
2023/02/28 00:30:23;;;;;;;2.33;1.33;;;;;;;;;;5113036;28;20507;-34
2023/02/28 00:32:50;;;;;;;3.90;1.83;;;;;;;;;;5112428;28;20032;-37
2023/02/28 00:35:17;;;;;;;2.53;1.30;;;;;;;;;;5112414;28;20509;-39
2023/02/28 00:37:43;;;;;;;2.58;1.38;;;;;;;;;;5112263;28;20035;-41
2023/02/28 00:40:11;;;;;;;3.83;1.67;;;;;;;;;;5112376;28;20369;-40
2023/02/28 00:42:37;;;;;;;3.53;1.60;;;;;;;;;;5112341;28;20026;-37
2023/02/28 00:45:07;;;;;;;2.45;1.40;;;;;;;;;;5112426;28;20023;-41
2023/02/28 00:47:34;;;;;;;2.35;1.42;;;;;;;;;;5112100;28;20077;-37
2023/02/28 00:50:00;;;;;;;3.13;1.50;;;;;;;;;;5112133;28;20031;-41
2023/02/28 00:52:26;;;;;;;2.20;1.42;;;;;;;;;;5112651;28;20027;-32
2023/02/28 00:54:52;;;;;;;2.78;1.55;;;;;;;;;;5112402;28;20081;-32
2023/02/28 00:57:18;;;;;;;2.53;1.27;;;;;;;;;;5111929;28;20020;-32
2023/02/28 00:59:44;;;;;;;3.13;1.55;;;;;;;;;;5112050;28;20085;-33
2023/02/28 01:02:10;;;;;;;2.40;1.40;;;;;;;;;;5111981;28;20045;-34
2023/02/28 01:04:36;;;;;;;2.47;1.55;;;;;;;;;;5111933;27;20062;-34
2023/02/28 01:07:02;;;;;;;2.25;1.30;;;;;;;;;;5111773;28;20445;-31
2023/02/28 01:09:29;;;;;;;2.25;1.45;;;;;;;;;;5112771;28;20098;-34
2023/02/28 01:11:55;;;;;;;2.78;1.60;;;;;;;;;;5111937;28;20031;-31
2023/02/28 01:14:21;;;;;;;2.42;1.52;;;;;;;;;;5112010;28;20024;-32
2023/02/28 01:16:47;;;;;;;3.03;1.48;;;;;;;;;;5112082;28;20024;-36
2023/02/28 01:19:13;;;;;;;4.53;1.38;;;;;;;;;;5111021;28;20027;-33
2023/02/28 01:21:39;;;;;;;3.65;1.38;;;;;;;;;;5111777;28;20046;-32
2023/02/28 01:24:05;;;;;;;3.33;1.42;;;;;;;;;;5113304;28;20024;-32
2023/02/28 01:26:32;;;;;;;2.67;1.23;;;;;;;;;;5111560;28;20024;-31
2023/02/28 01:28:58;;;;;;;2.47;1.40;;;;;;;;;;5111850;28;20051;-35
2023/02/28 01:31:24;;;;;;;2.53;1.60;;;;;;;;;;5111565;28;20381;-31
2023/02/28 01:33:50;;;;;;;2.67;1.42;;;;;;;;;;5111641;28;20028;-33
2023/02/28 01:36:20;;;;;;;3.40;1.40;;;;;;;;;;5111653;28;20019;-33
2023/02/28 01:38:47;;;;;;;1.98;1.30;;;;;;;;;;5110250;28;20028;-29
2023/02/28 01:41:19;;;;;;;4.53;1.52;;;;;;;;;;5114449;28;20095;-31
2023/02/28 01:43:44;;;;;;;3.92;1.80;;;;;;;;;;5115870;28;20090;-33
2023/02/28 01:46:11;;;;;;;2.95;1.52;;;;;;;;;;5115434;28;20131;-31
2023/02/28 01:48:43;;;;;;;5.93;1.70;;;;;;;;;;5115756;28;20028;-31
2023/02/28 01:51:11;;;;;;;3.72;1.60;;;;;;;;;;5115694;27;20024;-33
2023/02/28 01:53:42;;;;;;;2.15;1.35;;;;;;;;;;5115662;27;20032;-31
2023/02/28 01:56:09;;;;;;;2.45;1.50;;;;;;;;;;5115437;27;20031;-35
2023/02/28 01:58:36;;;;;;;3.38;1.70;;;;;;;;;;5115371;28;20470;-34
2023/02/28 02:01:02;;;;;;;1.95;1.33;;;;;;;;;;5115320;28;20055;-31
2023/02/28 02:03:29;;;;;;;4.07;1.75;;;;;;;;;;5115476;28;20512;-32
2023/02/28 02:05:55;;;;;;;2.35;1.35;;;;;;;;;;5115281;28;20469;-31
2023/02/28 02:08:26;;;;;;;2.67;1.58;;;;;;;;;;5115392;28;20081;-32
2023/02/28 02:10:53;;;;;;;2.10;1.33;;;;;;;;;;5115392;27;20540;-30
2023/02/28 02:13:23;;;;;;;2.30;1.48;;;;;;;;;;5115211;28;20356;-31
2023/02/28 02:15:58;;;;;;;2.50;1.80;;;;;;;;;;5115462;28;20038;-41
2023/02/28 02:18:24;;;;;;;2.70;1.60;;;;;;;;;;5115118;28;20027;-38
2023/02/28 02:21:01;;;;;;;3.92;1.58;;;;;;;;;;5115144;28;20504;-35
2023/02/28 02:23:27;;;;;;;3.60;1.83;;;;;;;;;;5115150;28;20106;-39
2023/02/28 02:25:59;;;;;;;3.42;1.73;;;;;;;;;;5114806;28;20066;-37
2023/02/28 02:28:36;;;;;;;2.30;1.60;;;;;;;;;;5115262;28;20479;-39
2023/02/28 02:31:42;;;;;;;2.75;1.63;;;;;;;;;;5115647;28;20019;-39
2023/02/28 02:34:07;;;;;;;;;;;;;;;;;;5071990;28;20029;-36
2023/02/28 02:36:36;;;;;;;3.38;1.50;;;;;;;;;;5092806;28;19910;-37
2023/02/28 02:39:14;;;;;;;3.15;1.80;;;;;;;;;;5114769;28;20028;-38
2023/02/28 02:41:43;;;;;;;3.65;1.50;;;;;;;;;;5114679;28;20377;-39
2023/02/28 02:44:21;;;;;;;2.85;1.77;;;;;;;;;;5114717;28;20076;-37
2023/02/28 02:46:49;;;;;;;2.67;1.70;;;;;;;;;;5114389;28;20392;-37
2023/02/28 02:49:22;;;;;;;2.75;1.58;;;;;;;;;;5114659;28;20027;-41
2023/02/28 02:51:48;;;;;;;2.78;1.60;;;;;;;;;;5113180;28;20322;-40
2023/02/28 02:54:34;;;;;;;4.85;1.70;;;;;;;;;;5114504;28;20023;-34
2023/02/28 02:57:03;;;;;;;2.47;1.55;;;;;;;;;;5114106;28;20032;-36
2023/02/28 02:59:30;;;;;;;4.88;1.88;;;;;;;;;;5114057;28;20028;-38
2023/02/28 03:01:57;;;;;;;5.38;1.70;;;;;;;;;;5114826;28;20381;-41
2023/02/28 03:04:25;;;;;;;3.20;1.90;;;;;;;;;;5114354;28;20012;-38
2023/02/28 03:06:54;;;;;;;2.88;1.75;;;;;;;;;;5114023;28;20020;-38
2023/02/28 03:09:24;;;;;;;3.40;1.90;;;;;;;;;;5114153;28;20084;-38
2023/02/28 03:11:51;;;;;;;4.00;1.92;;;;;;;;;;5114160;28;20081;-34
2023/02/28 03:14:36;;;;;;;2.97;1.80;;;;;;;;;;5114132;28;20042;-38
2023/02/28 03:17:20;;;;;;;2.85;1.63;;;;;;;;;;5113883;28;20397;-38
2023/02/28 03:19:55;;;;;;;3.15;1.75;;;;;;;;;;5114047;28;20627;-38
2023/02/28 03:22:43;;;;;;;3.38;1.80;;;;;;;;;;5114056;28;20027;-39
2023/02/28 03:25:12;;;;;;;2.15;1.52;;;;;;;;;;5113946;28;20023;-38
2023/02/28 03:27:38;;;;;;;3.25;1.80;;;;;;;;;;5113989;28;20026;-41
2023/02/28 03:30:11;;;;;;;3.65;1.73;;;;;;;;;;5113817;27;20397;-39
2023/02/28 03:32:41;;;;;;;3.42;1.70;;;;;;;;;;5113682;28;20024;-37
2023/02/28 03:35:10;;;;;;;3.42;1.67;;;;;;;;;;5115300;28;20106;-38
2023/02/28 03:37:37;;;;;;;3.17;1.80;;;;;;;;;;5113959;28;20024;-36
2023/02/28 03:40:08;;;;;;;2.78;1.80;;;;;;;;;;5113659;28;20027;-40
2023/02/28 03:42:36;;;;;;;4.05;2.15;;;;;;;;;;5113631;28;20387;-33
2023/02/28 03:45:09;;;;;;;3.05;1.60;;;;;;;;;;5113419;28;20035;-39
2023/02/28 03:47:37;;;;;;;2.50;1.60;;;;;;;;;;5113325;28;20039;-38
2023/02/28 03:50:12;;;;;;;3.00;1.75;;;;;;;;;;5114207;28;20257;-40
2023/02/28 03:53:04;;;;;;;3.55;1.92;;;;;;;;;;5113316;28;20024;-36
2023/02/28 03:55:32;;;;;;;2.53;1.52;;;;;;;;;;5105113;28;20043;-38
2023/02/28 03:58:02;;;;;;;3.03;1.88;;;;;;;;;;5112995;28;20207;-37
2023/02/28 04:00:30;;;;;;;4.25;2.00;;;;;;;;;;5113101;28;20561;-40
2023/02/28 04:02:56;;;;;;;3.75;2.15;;;;;;;;;;5112695;28;20541;-38
2023/02/28 04:05:23;;;;;;;3.15;1.90;;;;;;;;;;5113119;28;20027;-37
2023/02/28 04:07:49;;;;;;;2.63;1.67;;;;;;;;;;5113085;28;20399;-35
2023/02/28 04:10:15;;;;;;;2.17;1.65;;;;;;;;;;5113060;28;20472;-38
2023/02/28 04:12:41;;;;;;;4.28;1.60;;;;;;;;;;5112876;28;20032;-39
2023/02/28 04:15:08;;;;;;;3.00;1.80;;;;;;;;;;5111635;28;20028;-36
2023/02/28 04:17:34;;;;;;;3.05;1.70;;;;;;;;;;5113686;28;20023;-37
2023/02/28 04:20:00;;;;;;;4.07;1.88;;;;;;;;;;5112901;28;20077;-38
2023/02/28 04:22:26;;;;;;;3.15;1.90;;;;;;;;;;5113279;28;20385;-39
2023/02/28 04:24:54;;;;;;;3.92;2.05;;;;;;;;;;5112827;28;20505;-39
2023/02/28 04:27:20;;;;;;;3.25;1.67;;;;;;;;;;5112459;28;20400;-33
2023/02/28 04:29:46;;;;;;;3.05;1.80;;;;;;;;;;5112710;28;20029;-38
2023/02/28 04:32:12;;;;;;;2.90;1.83;;;;;;;;;;5112589;28;20035;-37
2023/02/28 04:34:38;;;;;;;4.07;2.00;;;;;;;;;;5113024;28;20027;-37
2023/02/28 04:37:05;;;;;;;2.88;1.70;;;;;;;;;;5112372;28;20019;-39
2023/02/28 04:39:35;;;;;;;4.38;2.20;;;;;;;;;;5112812;28;20028;-36
2023/02/28 04:42:01;;;;;;;3.20;1.77;;;;;;;;;;5112382;28;20072;-38
2023/02/28 04:44:27;;;;;;;2.50;1.80;;;;;;;;;;5112406;28;20435;-39
2023/02/28 04:46:53;;;;;;;3.50;1.83;;;;;;;;;;5112102;28;20024;-37
2023/02/28 04:49:19;;;;;;;5.03;1.90;;;;;;;;;;5112289;28;20058;-38
2023/02/28 04:51:45;;;;;;;3.17;2.00;;;;;;;;;;5113023;28;20377;-36
2023/02/28 04:54:11;;;;;;;3.25;1.83;;;;;;;;;;5112235;28;20028;-39
2023/02/28 04:56:37;;;;;;;3.25;2.03;;;;;;;;;;5112055;28;20023;-36
2023/02/28 04:59:03;;;;;;;3.90;1.85;;;;;;;;;;5112095;28;20392;-38
2023/02/28 05:01:32;;;;;;;4.47;2.38;;;;;;;;;;5112089;28;20037;-38
2023/02/28 05:03:58;;;;;;;2.72;1.80;;;;;;;;;;5112005;28;20019;-37
2023/02/28 05:06:25;;;;;;;3.65;1.92;;;;;;;;;;5111754;28;20024;-35
2023/02/28 05:08:52;;;;;;;2.65;1.85;;;;;;;;;;5112183;28;20027;-36
2023/02/28 05:11:19;;;;;;;4.00;2.17;;;;;;;;;;5111866;28;20130;-38
2023/02/28 05:13:46;;;;;;;3.90;2.00;;;;;;;;;;5111977;28;20073;-35
2023/02/28 05:16:12;;;;;;;2.85;1.83;;;;;;;;;;5110910;28;20024;-35
2023/02/28 05:18:38;;;;;;;3.85;2.40;;;;;;;;;;5111729;28;20034;-34
2023/02/28 05:21:04;;;;;;;3.38;1.77;;;;;;;;;;5111821;28;20106;-38
2023/02/28 05:23:30;;;;;;;3.15;2.10;;;;;;;;;;5112033;28;20015;-36
2023/02/28 05:25:56;;;;;;;4.03;2.17;;;;;;;;;;5111562;28;20492;-36
2023/02/28 05:28:22;;;;;;;3.25;1.80;;;;;;;;;;5111945;28;20045;-40
2023/02/28 05:30:48;;;;;;;3.92;2.22;;;;;;;;;;5111672;28;20059;-35
2023/02/28 05:33:14;;;;;;;5.32;1.90;;;;;;;;;;5112237;28;20024;-39
2023/02/28 05:35:42;;;;;;;4.35;2.30;;;;;;;;;;5111755;28;20617;-36
2023/02/28 05:38:08;;;;;;;4.20;2.05;;;;;;;;;;5111577;28;20032;-37
2023/02/28 05:40:34;;;;;;;3.17;1.92;;;;;;;;;;5111895;28;20030;-35
2023/02/28 05:43:01;;;;;;;3.83;2.05;;;;;;;;;;5111479;28;20031;-35
2023/02/28 05:45:27;;;;;;;4.13;2.17;;;;;;;;;;5111544;28;20031;-36
2023/02/28 05:47:56;;;;;;;4.88;2.53;;;;;;;;;;5111243;28;20027;-37
2023/02/28 05:50:22;;;;;;;3.53;2.17;;;;;;;;;;5111628;28;20481;-41
2023/02/28 05:52:51;;;;;;;3.65;2.10;;;;;;;;;;5111959;28;20533;-39
2023/02/28 05:55:18;;;;;;;4.30;2.03;;;;;;;;;;5111538;28;20175;-39
2023/02/28 05:57:44;;;;;;;2.97;2.08;;;;;;;;;;5111929;28;20482;-34
2023/02/28 06:00:11;;;;;;;3.15;2.03;;;;;;;;;;5110138;28;20031;-38
2023/02/28 06:02:38;;;;;;;3.33;2.13;;;;;;;;;;5111573;28;20401;-39
2023/02/28 06:05:05;;;;;;;3.35;1.98;;;;;;;;;;5110470;28;20027;-39
2023/02/28 06:07:31;;;;;;;3.47;2.10;;;;;;;;;;5111360;28;20027;-38
2023/02/28 06:09:57;;;;;;;3.17;2.00;;;;;;;;;;5111596;28;20015;-39
2023/02/28 06:12:24;;;;;;;4.30;2.13;;;;;;;;;;5111357;28;20048;-36
2023/02/28 06:14:50;;;;;;;3.20;1.98;;;;;;;;;;5111301;28;20022;-36
2023/02/28 06:17:16;;;;;;;2.90;1.92;;;;;;;;;;5111290;28;20081;-40
2023/02/28 06:19:42;;;;;;;5.43;2.30;;;;;;;;;;5111498;28;20431;-38
2023/02/28 06:22:08;;;;;;;3.33;2.05;;;;;;;;;;5111436;28;20027;-39
2023/02/28 06:24:34;;;;;;;4.18;2.20;;;;;;;;;;5111287;28;20572;-43
2023/02/28 06:27:04;;;;;;;5.45;2.38;;;;;;;;;;5113558;28;20369;-40
2023/02/28 06:29:31;;;;;;;3.47;2.10;;;;;;;;;;5115256;28;20020;-34
2023/02/28 06:31:57;;;;;;;2.55;1.80;;;;;;;;;;5115287;28;20032;-33
2023/02/28 06:34:23;;;;;;;4.32;2.17;;;;;;;;;;5115217;28;20107;-33
2023/02/28 06:36:50;;;;;;;3.78;2.20;;;;;;;;;;5114802;28;20393;-33
2023/02/28 06:39:17;;;;;;;4.63;2.03;;;;;;;;;;5114750;28;20020;-38
2023/02/28 06:41:45;;;;;;;3.63;2.25;;;;;;;;;;5114752;28;20045;-38
2023/02/28 06:44:12;;;;;;;2.75;2.00;;;;;;;;;;5115163;28;20015;-36
2023/02/28 06:46:40;;;;;;;7.43;2.40;;;;;;;;;;5114468;28;20380;-31
2023/02/28 06:49:08;;;;;;;2.75;1.90;;;;;;;;;;5115025;28;20054;-30
2023/02/28 06:51:34;;;;;;;4.13;2.20;;;;;;;;;;5114576;28;20023;-31
2023/02/28 06:54:00;;;;;;;3.67;2.40;;;;;;;;;;5114417;28;20496;-41
2023/02/28 06:56:26;;;;;;;3.97;2.20;;;;;;;;;;5114356;28;20077;-39
2023/02/28 06:58:52;;;;;;;4.07;2.50;;;;;;;;;;5114276;28;20094;-37
2023/02/28 07:01:19;;;;;;;5.05;2.47;;;;;;;;;;5114603;28;20030;-41
2023/02/28 07:03:45;;;;;;;3.22;2.25;;;;;;;;;;5114364;28;20016;-36
2023/02/28 07:06:11;;;;;;;4.35;2.17;;;;;;;;;;5113899;28;20094;-41
2023/02/28 07:08:39;;;;;;;5.72;2.20;;;;;;;;;;5114209;28;20511;-30
2023/02/28 07:11:06;;;;;;;3.22;2.20;;;;;;;;;;5114633;28;20143;-39
2023/02/28 07:13:32;;;;;;;4.32;2.28;;;;;;;;;;5114346;28;20509;-32
2023/02/28 07:16:01;;;;;;;3.75;2.03;;;;;;;;;;5113962;27;20063;-31
2023/02/28 07:18:28;;;;;;;4.20;2.25;;;;;;;;;;5114040;28;20040;-37
2023/02/28 07:20:54;;;;;;;3.53;2.42;;;;;;;;;;5113911;28;20044;-38
2023/02/28 07:23:21;;;;;;;4.18;2.45;;;;;;;;;;5114042;28;20213;-41
2023/02/28 07:25:47;;;;;;;3.22;2.22;;;;;;;;;;5113793;28;20038;-36
2023/02/28 07:28:13;;;;;;;4.30;2.55;;;;;;;;;;5114122;28;20032;-34
2023/02/28 07:30:39;;;;;;;3.92;2.25;;;;;;;;;;5113874;28;20098;-32
2023/02/28 07:33:05;;;;;;;3.95;2.22;;;;;;;;;;5113781;28;20031;-30
2023/02/28 07:35:31;;;;;;;3.75;2.22;;;;;;;;;;5113786;28;20035;-34
2023/02/28 07:37:58;;;;;;;2.95;2.08;;;;;;;;;;5112508;28;20074;-37
2023/02/28 07:40:24;;;;;;;3.50;2.25;;;;;;;;;;5113710;28;20019;-39
2023/02/28 07:42:50;;;;;;;4.07;2.20;;;;;;;;;;5113577;28;20090;-30
2023/02/28 07:45:17;;;;;;;3.60;2.42;;;;;;;;;;5113557;27;20157;-32
2023/02/28 07:47:43;;;;;;;4.18;2.45;;;;;;;;;;5113334;28;20027;-31
2023/02/28 07:50:10;;;;;;;4.03;2.30;;;;;;;;;;5113507;28;20470;-30
2023/02/28 07:52:37;;;;;;;4.65;2.65;;;;;;;;;;5113228;28;20028;-30
2023/02/28 07:55:04;;;;;;;4.35;2.60;;;;;;;;;;5113381;27;20030;-30
2023/02/28 07:57:30;;;;;;;3.85;2.17;;;;;;;;;;5113009;28;20437;-33
2023/02/28 07:59:56;;;;;;;5.60;2.33;;;;;;;;;;5113129;28;20494;-39
2023/02/28 08:02:22;;;;;;;4.28;2.65;;;;;;;;;;5113586;28;20031;-39
2023/02/28 08:04:49;;;;;;;5.38;2.58;;;;;;;;;;5113281;28;20496;-38
2023/02/28 08:07:15;;;;;;;3.72;2.65;;;;;;;;;;5112716;28;20065;-30
2023/02/28 08:09:41;;;;;;;3.88;2.40;;;;;;;;;;5113070;28;20023;-29
2023/02/28 08:12:08;;;;;;;5.22;2.55;;;;;;;;;;5113005;28;20421;-40
2023/02/28 08:14:34;;;;;;;4.72;2.55;;;;;;;;;;5113317;28;20110;-35
2023/02/28 08:17:00;;;;;;;3.72;2.47;;;;;;;;;;5112715;28;20028;-33
2023/02/28 08:19:27;;;;;;;3.80;2.45;;;;;;;;;;5112857;28;20042;-37
2023/02/28 08:21:53;;;;;;;5.07;2.78;;;;;;;;;;5112606;28;20027;-31
2023/02/28 08:24:19;;;;;;;3.78;2.50;;;;;;;;;;5111770;28;20023;-38
2023/02/28 08:26:45;;;;;;;4.18;2.60;;;;;;;;;;5112565;27;20034;-35
2023/02/28 08:29:11;;;;;;;5.15;2.78;;;;;;;;;;5112663;28;20024;-38
2023/02/28 08:31:37;;;;;;;5.47;2.60;;;;;;;;;;5112650;28;20041;-28
2023/02/28 08:34:10;;;;;;;4.47;2.72;;;;;;;;;;5113116;28;20456;-40
2023/02/28 08:36:36;;;;;;;5.00;2.70;;;;;;;;;;5112765;28;20030;-31
2023/02/28 08:39:02;;;;;;;4.50;2.80;;;;;;;;;;5112559;28;20028;-40
2023/02/28 08:41:28;;;;;;;5.60;2.95;;;;;;;;;;5112717;28;20421;-30
2023/02/28 08:43:54;;;;;;;4.68;2.88;;;;;;;;;;5112510;28;20055;-40
2023/02/28 08:46:20;;;;;;;7.60;2.40;;;;;;;;;;5112241;28;20092;-37
2023/02/28 08:48:47;;;;;;;4.13;2.90;;;;;;;;;;5112229;28;20027;-38
2023/02/28 08:51:18;;;;;;;4.93;3.30;;;;;;;;;;5112224;28;20406;-40
2023/02/28 08:53:45;;;;;;;3.70;2.47;;;;;;;;;;5112334;28;20107;-36
2023/02/28 08:56:13;;;;;;;4.40;2.63;;;;;;;;;;5112325;28;20023;-32
2023/02/28 08:58:39;;;;;;;6.07;3.28;;;;;;;;;;5112040;28;20092;-40
2023/02/28 09:01:10;;;;;;;4.78;2.95;;;;;;;;;;5112000;28;20032;-40
2023/02/28 09:03:36;;;;;;;4.85;3.00;;;;;;;;;;5112101;28;20075;-38
2023/02/28 09:06:02;;;;;;;4.05;2.70;;;;;;;;;;5111766;28;20148;-40
2023/02/28 09:08:32;;;;;;;5.85;3.10;;;;;;;;;;5113407;28;20030;-41
2023/02/28 09:10:59;;;;;;;5.50;3.50;;;;;;;;;;5111954;27;20032;-36
2023/02/28 09:13:26;;;;;;;4.70;2.95;;;;;;;;;;5112716;28;20016;-31
2023/02/28 09:15:52;;;;;;;4.95;3.22;;;;;;;;;;5112765;28;20020;-33
2023/02/28 09:18:19;;;;;;;5.22;3.33;;;;;;;;;;5111960;28;20019;-35
2023/02/28 09:20:45;;;;;;;5.80;3.53;;;;;;;;;;5111859;28;20023;-36
2023/02/28 09:23:12;;;;;;;6.55;3.25;;;;;;;;;;5111630;28;20027;-36
2023/02/28 09:25:38;;;;;;;4.00;3.00;;;;;;;;;;5111729;28;20106;-39
2023/02/28 09:28:04;;;;;;;5.95;4.05;;;;;;;;;;5111756;28;20081;-42
2023/02/28 09:30:30;;;;;;;6.10;3.55;;;;;;;;;;5111964;28;20124;-31
2023/02/28 09:32:56;;;;;;;5.70;3.47;;;;;;;;;;5111701;28;20477;-38
2023/02/28 09:35:23;;;;;;;5.15;3.45;;;;;;;;;;5111783;28;20027;-42
2023/02/28 09:37:51;;;;;;;4.95;3.45;;;;;;;;;;5111414;28;20489;-37
2023/02/28 09:40:18;;;;;;;8.63;4.07;;;;;;;;;;5111701;28;20038;-32
2023/02/28 09:42:46;;;;;;;4.63;3.40;;;;;;;;;;5111638;28;20027;-37
2023/02/28 09:45:20;;;;;;;7.68;3.63;;;;;;;;;;5111674;28;20114;-31
2023/02/28 09:47:47;;;;;;;4.75;3.25;;;;;;;;;;5111603;28;20028;-38
2023/02/28 09:50:26;;;;;;;5.35;3.53;;;;;;;;;;5111538;28;20024;-34
2023/02/28 09:52:54;;;;;;;4.50;2.97;;;;;;;;;;5111479;28;20492;-38
2023/02/28 09:55:25;;;;;;;5.57;3.25;;;;;;;;;;5111431;28;20427;-37
2023/02/28 09:57:52;;;;;;;6.53;3.72;;;;;;;;;;5111270;28;20028;-32
2023/02/28 10:00:20;;;;;;;5.20;3.20;;;;;;;;;;5112034;28;20072;-41
2023/02/28 10:03:05;;;;;;;5.55;3.60;;;;;;;;;;5115838;28;20015;-43
2023/02/28 10:05:31;;;;;;;;;;;;;;;;;;5115865;28;20024;-40
2023/02/28 10:08:08;;;;;;;10.15;3.80;;;;;;;;;;5117892;28;20116;-33
2023/02/28 10:10:52;;;;;;;5.28;3.40;;;;;;;;;;5115500;27;20055;-31
2023/02/28 10:13:21;;;;;;;5.00;3.53;;;;;;;;;;5115267;28;20019;-31
2023/02/28 10:15:50;;;;;;;6.00;3.72;;;;;;;;;;5115051;28;20076;-36
2023/02/28 10:18:18;;;;;;;6.13;3.15;;;;;;;;;;5115512;27;20024;-33
2023/02/28 10:20:45;;;;;;;5.43;3.45;;;;;;;;;;5115186;28;20427;-34
2023/02/28 10:23:19;;;;;;;5.65;3.25;;;;;;;;;;5114938;28;20020;-42
2023/02/28 10:25:48;;;;;;;6.30;3.30;;;;;;;;;;5115027;28;20055;-39
2023/02/28 10:28:17;;;;;;;5.07;3.45;;;;;;;;;;5115057;28;20492;-40
2023/02/28 10:30:46;;;;;;;6.63;3.63;;;;;;;;;;5115045;28;20024;-32
2023/02/28 10:33:18;;;;;;;6.53;3.70;;;;;;;;;;5114886;28;20019;-32
2023/02/28 10:35:44;;;;;;;5.05;3.58;;;;;;;;;;5114772;28;20080;-34
2023/02/28 10:38:15;;;;;;;5.47;3.22;;;;;;;;;;5114797;28;20490;-32
2023/02/28 10:40:41;;;;;;;6.15;3.35;;;;;;;;;;5114958;28;20032;-31
2023/02/28 10:43:13;;;;;;;6.32;3.63;;;;;;;;;;5114752;28;20039;-34
2023/02/28 10:45:40;;;;;;;5.40;3.50;;;;;;;;;;5114797;28;20023;-31
2023/02/28 10:48:26;;;;;;;5.43;3.58;;;;;;;;;;5114414;28;20023;-31
2023/02/28 10:50:56;;;;;;;5.85;3.50;;;;;;;;;;5115520;28;20056;-37
2023/02/28 10:53:25;;;;;;;5.95;3.60;;;;;;;;;;5113681;28;20035;-39
2023/02/28 10:56:02;;;;;;;6.00;3.85;;;;;;;;;;5114433;28;20141;-38
2023/02/28 10:58:30;;;;;;;7.35;3.90;;;;;;;;;;5114604;28;20032;-36
2023/02/28 11:00:56;;;;;;;4.78;3.53;;;;;;;;;;5114275;28;20047;-34
2023/02/28 11:03:33;;;;;;;6.65;3.50;;;;;;;;;;5115077;28;20027;-31
2023/02/28 11:06:04;;;;;;;6.13;3.35;;;;;;;;;;5114784;28;20024;-37
2023/02/28 11:08:31;;;;;;;6.10;3.55;;;;;;;;;;5114360;28;20023;-41
2023/02/28 11:10:58;;;;;;;6.60;3.58;;;;;;;;;;5115072;28;20031;-31
2023/02/28 11:13:30;;;;;;;7.05;3.70;;;;;;;;;;5113161;28;20085;-31
2023/02/28 11:15:59;;;;;;;7.07;3.85;;;;;;;;;;5113927;28;20020;-32
2023/02/28 11:18:30;;;;;;;9.82;3.95;;;;;;;;;;5113993;28;20090;-31
2023/02/28 11:20:58;;;;;;;5.10;3.60;;;;;;;;;;5113975;27;20423;-39
2023/02/28 11:23:27;;;;;;;6.50;3.88;;;;;;;;;;5114026;28;20049;-39
2023/02/28 11:25:56;;;;;;;7.43;3.63;;;;;;;;;;5113795;28;20015;-30
2023/02/28 11:28:32;;;;;;;5.90;3.60;;;;;;;;;;5113855;28;20106;-39
2023/02/28 11:31:03;;;;;;;5.47;3.88;;;;;;;;;;5113852;28;20109;-35
2023/02/28 11:33:41;;;;;;;6.70;4.00;;;;;;;;;;5113691;28;20027;-34
2023/02/28 11:36:12;;;;;;;7.10;3.75;;;;;;;;;;5113797;28;20097;-31
2023/02/28 11:38:38;;;;;;;5.80;3.95;;;;;;;;;;5113642;28;20111;-35
2023/02/28 11:41:05;;;;;;;5.45;3.75;;;;;;;;;;5113710;28;20064;-34
2023/02/28 11:43:31;;;;;;;6.90;4.07;;;;;;;;;;5113636;28;20394;-41
2023/02/28 11:46:11;;;;;;;6.20;3.80;;;;;;;;;;5114026;28;20361;-42
2023/02/28 11:48:49;;;;;;;5.95;3.80;;;;;;;;;;5113577;28;20035;-33
2023/02/28 11:51:28;;;;;;;6.40;3.80;;;;;;;;;;5113516;28;20112;-33
2023/02/28 11:54:08;;;;;;;6.53;3.60;;;;;;;;;;5113419;28;20024;-33
2023/02/28 11:56:37;;;;;;;6.40;4.43;;;;;;;;;;5114006;27;20035;-32
2023/02/28 11:59:12;;;;;;;7.47;3.45;;;;;;;;;;5113160;28;20106;-32
2023/02/28 12:01:50;;;;;;;6.70;3.42;;;;;;;;;;5113213;28;20110;-41
2023/02/28 12:04:16;;;;;;;7.40;3.58;;;;;;;;;;5113303;28;20049;-33
2023/02/28 12:06:52;;;;;;;5.18;3.53;;;;;;;;;;5112984;27;20023;-36
2023/02/28 12:09:30;;;;;;;5.25;3.47;;;;;;;;;;5113725;28;20027;-35
2023/02/28 12:12:05;;;;;;;5.65;3.42;;;;;;;;;;5111671;28;20028;-42
2023/02/28 12:14:50;;;;;;;6.25;3.72;;;;;;;;;;5113045;28;20032;-38
2023/02/28 12:17:34;;;;;;;5.63;3.75;;;;;;;;;;5112602;28;20030;-37
2023/02/28 12:20:00;;;;;;;6.78;3.65;;;;;;;;;;5112915;28;20028;-43
2023/02/28 12:22:31;;;;;;;4.72;3.70;;;;;;;;;;5112794;28;20095;-41
2023/02/28 12:25:15;;;;;;;5.82;3.60;;;;;;;;;;5113183;28;20101;-39
2023/02/28 12:27:41;;;;;;;;;;;;;;;;;;5112886;28;20035;-35
2023/02/28 12:30:27;;;;;;;4.75;3.53;;;;;;;;;;5112692;28;19908;-37
2023/02/28 12:32:56;;;;;;;7.20;3.80;;;;;;;;;;5112894;28;20032;-41
2023/02/28 12:35:26;;;;;;;4.75;3.40;;;;;;;;;;5114891;28;20020;-38
2023/02/28 12:37:56;;;;;;;5.93;3.35;;;;;;;;;;5112709;28;20024;-40
2023/02/28 12:40:23;;;;;;;5.57;3.80;;;;;;;;;;5112558;28;20012;-41
2023/02/28 12:42:55;;;;;;;4.95;3.53;;;;;;;;;;5111017;27;20016;-37
2023/02/28 12:45:23;;;;;;;5.18;3.05;;;;;;;;;;5113029;28;20052;-32
2023/02/28 12:48:02;;;;;;;4.60;3.30;;;;;;;;;;5112401;28;20385;-32
2023/02/28 12:50:31;;;;;;;5.40;3.30;;;;;;;;;;5112835;28;20022;-43
2023/02/28 12:53:07;;;;;;;6.07;3.47;;;;;;;;;;5111254;28;20069;-33
2023/02/28 12:55:42;;;;;;;6.53;3.38;;;;;;;;;;5112679;28;20023;-40
2023/02/28 12:58:30;;;;;;;5.32;3.33;;;;;;;;;;5112267;28;20047;-42
2023/02/28 13:01:11;;;;;;;6.97;3.45;;;;;;;;;;5112542;28;20087;-41
2023/02/28 13:04:00;;;;;;;4.57;2.97;;;;;;;;;;5112081;28;20028;-32
2023/02/28 13:06:55;;;;;;;5.88;3.75;;;;;;;;;;5112081;28;20015;-35
2023/02/28 13:09:22;;;;;;;7.43;3.75;;;;;;;;;;5111729;28;20103;-39
2023/02/28 13:11:55;;;;;;;6.13;3.38;;;;;;;;;;5112341;27;20504;-41
2023/02/28 13:14:21;;;;;;;6.40;3.90;;;;;;;;;;5111968;28;20481;-42
2023/02/28 13:16:57;;;;;;;5.82;3.58;;;;;;;;;;5112546;28;20034;-38
2023/02/28 13:19:24;;;;;;;5.65;3.67;;;;;;;;;;5112470;28;20110;-43
2023/02/28 13:21:50;;;;;;;5.72;3.17;;;;;;;;;;5112339;28;20020;-40
2023/02/28 13:24:35;;;;;;;5.72;3.63;;;;;;;;;;5112103;28;20099;-40
2023/02/28 13:27:01;;;;;;;;;;;;;;;;;;5112136;28;20103;-42
2023/02/28 13:29:27;;;;;;;5.63;3.20;;;;;;;;;;5111773;28;20354;-41
2023/02/28 13:32:08;;;;;;;4.25;3.17;;;;;;;;;;5111678;28;20027;-42
2023/02/28 13:34:36;;;;;;;5.43;3.20;;;;;;;;;;5112428;28;20103;-40
2023/02/28 13:37:20;;;;;;;4.53;3.00;;;;;;;;;;5112108;28;20034;-42
2023/02/28 13:39:48;;;;;;;5.97;3.50;;;;;;;;;;5113095;28;20393;-35
2023/02/28 13:42:24;;;;;;;5.13;3.53;;;;;;;;;;5111739;28;20257;-33
2023/02/28 13:45:05;;;;;;;4.55;3.15;;;;;;;;;;5112437;28;20041;-32
2023/02/28 13:47:40;;;;;;;5.32;3.03;;;;;;;;;;5111642;28;20023;-39
2023/02/28 13:50:24;;;;;;;4.47;3.20;;;;;;;;;;5111921;28;20044;-41
2023/02/28 13:53:09;;;;;;;6.15;2.95;;;;;;;;;;5111552;28;20407;-43
2023/02/28 13:55:42;;;;;;;3.92;2.78;;;;;;;;;;5111499;28;20024;-40
2023/02/28 13:58:12;;;;;;;6.10;3.25;;;;;;;;;;5111384;28;20035;-39
2023/02/28 14:01:04;;;;;;;5.13;3.30;;;;;;;;;;5111954;28;20028;-40
2023/02/28 14:03:30;;;;;;;6.05;3.30;;;;;;;;;;5112001;28;20083;-41
2023/02/28 14:06:09;;;;;;;5.25;3.58;;;;;;;;;;5111779;28;20550;-36
2023/02/28 14:08:35;;;;;;;4.68;3.30;;;;;;;;;;5111422;28;20024;-42
2023/02/28 14:11:06;;;;;;;5.70;3.60;;;;;;;;;;5111398;28;20076;-41
2023/02/28 14:13:47;;;;;;;7.13;3.30;;;;;;;;;;5112047;28;20024;-34
2023/02/28 14:16:17;;;;;;;4.68;3.08;;;;;;;;;;5111487;28;20027;-42
2023/02/28 14:18:50;;;;;;;6.65;3.10;;;;;;;;;;5111904;28;20023;-40
2023/02/28 14:21:25;;;;;;;4.22;2.92;;;;;;;;;;5112188;28;20141;-40
2023/02/28 14:24:10;;;;;;;4.10;2.60;;;;;;;;;;5111332;28;20416;-41
2023/02/28 14:26:48;;;;;;;4.45;2.88;;;;;;;;;;5110977;28;20051;-39
2023/02/28 14:29:17;;;;;;;4.90;3.00;;;;;;;;;;5111229;28;20035;-35
2023/02/28 14:31:55;;;;;;;4.97;3.20;;;;;;;;;;5111509;28;20389;-32
2023/02/28 14:34:21;;;;;;;4.22;3.03;;;;;;;;;;5111519;28;20388;-39
2023/02/28 14:36:47;;;;;;;4.40;3.00;;;;;;;;;;5110829;28;20037;-40
2023/02/28 14:39:17;;;;;;;5.95;3.38;;;;;;;;;;5111079;28;20049;-33
2023/02/28 14:41:44;;;;;;;4.07;2.88;;;;;;;;;;5111386;28;20558;-42
2023/02/28 14:44:16;;;;;;;4.65;3.22;;;;;;;;;;5111118;28;20019;-41
2023/02/28 14:46:43;;;;;;;5.40;3.40;;;;;;;;;;5110936;28;20016;-41
2023/02/28 14:49:18;;;;;;;4.55;3.33;;;;;;;;;;5114745;28;20051;-33
2023/02/28 14:51:44;;;;;;;3.72;3.08;;;;;;;;;;5114612;28;20034;-34
2023/02/28 14:54:14;;;;;;;5.35;2.90;;;;;;;;;;5114878;28;20032;-39
2023/02/28 14:56:40;;;;;;;5.57;3.20;;;;;;;;;;5114375;28;20023;-39